sensor_id;sensor_type;location;lat;lon;timestamp;P1;durP1;ratioP1;P2;durP2;ratioP2
1344;SDS011;15375;48.540;9.268;2023-05-29T00:00:40;7.37;;;5.70;;
1344;SDS011;15375;48.540;9.268;2023-05-29T00:03:09;8.07;;;6.27;;
1344;SDS011;15375;48.540;9.268;2023-05-29T00:05:37;8.37;;;5.17;;
1344;SDS011;15375;48.540;9.268;2023-05-29T00:08:04;8.00;;;5.97;;
1344;SDS011;15375;48.540;9.268;2023-05-29T00:10:30;8.23;;;6.73;;
1344;SDS011;15375;48.540;9.268;2023-05-29T00:12:56;9.30;;;6.67;;
1344;SDS011;15375;48.540;9.268;2023-05-29T00:15:22;9.10;;;5.90;;
1344;SDS011;15375;48.540;9.268;2023-05-29T00:17:48;8.13;;;6.07;;
1344;SDS011;15375;48.540;9.268;2023-05-29T00:20:14;10.37;;;6.60;;
1344;SDS011;15375;48.540;9.268;2023-05-29T00:22:40;13.70;;;6.70;;
1344;SDS011;15375;48.540;9.268;2023-05-29T00:25:05;8.87;;;6.17;;
1344;SDS011;15375;48.540;9.268;2023-05-29T00:27:32;5.93;;;5.20;;
1344;SDS011;15375;48.540;9.268;2023-05-29T00:29:58;8.73;;;6.43;;
1344;SDS011;15375;48.540;9.268;2023-05-29T00:32:27;12.03;;;7.30;;
1344;SDS011;15375;48.540;9.268;2023-05-29T00:34:52;8.67;;;5.80;;
1344;SDS011;15375;48.540;9.268;2023-05-29T00:37:18;8.10;;;6.07;;
1344;SDS011;15375;48.540;9.268;2023-05-29T00:39:46;7.13;;;5.90;;
1344;SDS011;15375;48.540;9.268;2023-05-29T00:42:12;8.23;;;6.03;;
1344;SDS011;15375;48.540;9.268;2023-05-29T00:44:37;10.03;;;5.90;;
1344;SDS011;15375;48.540;9.268;2023-05-29T00:47:02;8.77;;;6.37;;
1344;SDS011;15375;48.540;9.268;2023-05-29T00:49:28;8.77;;;6.20;;
1344;SDS011;15375;48.540;9.268;2023-05-29T00:51:54;9.20;;;6.03;;
1344;SDS011;15375;48.540;9.268;2023-05-29T00:54:21;9.57;;;6.67;;
1344;SDS011;15375;48.540;9.268;2023-05-29T00:56:55;14.20;;;6.60;;
1344;SDS011;15375;48.540;9.268;2023-05-29T00:59:26;10.77;;;5.20;;
1344;SDS011;15375;48.540;9.268;2023-05-29T01:01:54;6.90;;;5.10;;
1344;SDS011;15375;48.540;9.268;2023-05-29T01:04:20;10.20;;;5.90;;
1344;SDS011;15375;48.540;9.268;2023-05-29T01:06:48;11.20;;;6.40;;
1344;SDS011;15375;48.540;9.268;2023-05-29T01:09:14;9.77;;;5.83;;
1344;SDS011;15375;48.540;9.268;2023-05-29T01:14:08;8.10;;;6.37;;
1344;SDS011;15375;48.540;9.268;2023-05-29T01:16:44;9.97;;;5.83;;
1344;SDS011;15375;48.540;9.268;2023-05-29T01:19:29;10.03;;;5.57;;
1344;SDS011;15375;48.540;9.268;2023-05-29T01:25:11;8.33;;;6.30;;
1344;SDS011;15375;48.540;9.268;2023-05-29T01:27:42;6.63;;;5.10;;
1344;SDS011;15375;48.540;9.268;2023-05-29T01:30:09;8.63;;;6.13;;
1344;SDS011;15375;48.540;9.268;2023-05-29T01:32:36;9.03;;;6.17;;
1344;SDS011;15375;48.540;9.268;2023-05-29T01:35:03;10.30;;;5.43;;
1344;SDS011;15375;48.540;9.268;2023-05-29T01:37:29;13.17;;;6.53;;
1344;SDS011;15375;48.540;9.268;2023-05-29T01:39:54;6.80;;;5.67;;
1344;SDS011;15375;48.540;9.268;2023-05-29T01:42:20;7.70;;;5.73;;
1344;SDS011;15375;48.540;9.268;2023-05-29T01:44:46;10.03;;;5.73;;
1344;SDS011;15375;48.540;9.268;2023-05-29T01:47:12;8.40;;;6.43;;
1344;SDS011;15375;48.540;9.268;2023-05-29T01:49:37;9.70;;;5.27;;
1344;SDS011;15375;48.540;9.268;2023-05-29T01:52:04;9.17;;;6.00;;
1344;SDS011;15375;48.540;9.268;2023-05-29T01:54:30;8.13;;;5.40;;
1344;SDS011;15375;48.540;9.268;2023-05-29T01:56:55;14.93;;;6.73;;
1344;SDS011;15375;48.540;9.268;2023-05-29T01:59:21;7.70;;;5.17;;
1344;SDS011;15375;48.540;9.268;2023-05-29T02:01:47;9.53;;;5.60;;
1344;SDS011;15375;48.540;9.268;2023-05-29T02:04:13;7.60;;;5.17;;
1344;SDS011;15375;48.540;9.268;2023-05-29T02:06:38;8.13;;;5.40;;
1344;SDS011;15375;48.540;9.268;2023-05-29T02:09:04;5.77;;;5.20;;
1344;SDS011;15375;48.540;9.268;2023-05-29T02:11:31;7.33;;;5.90;;
1344;SDS011;15375;48.540;9.268;2023-05-29T02:13:56;7.43;;;5.50;;
1344;SDS011;15375;48.540;9.268;2023-05-29T02:16:22;10.17;;;6.17;;
1344;SDS011;15375;48.540;9.268;2023-05-29T02:18:47;6.67;;;5.67;;
1344;SDS011;15375;48.540;9.268;2023-05-29T02:21:12;11.93;;;5.90;;
1344;SDS011;15375;48.540;9.268;2023-05-29T02:23:38;10.70;;;5.60;;
1344;SDS011;15375;48.540;9.268;2023-05-29T02:26:04;12.73;;;7.07;;
1344;SDS011;15375;48.540;9.268;2023-05-29T02:28:29;7.00;;;4.80;;
1344;SDS011;15375;48.540;9.268;2023-05-29T02:30:55;7.00;;;5.30;;
1344;SDS011;15375;48.540;9.268;2023-05-29T02:33:20;6.40;;;4.80;;
1344;SDS011;15375;48.540;9.268;2023-05-29T02:35:46;10.50;;;5.73;;
1344;SDS011;15375;48.540;9.268;2023-05-29T02:38:14;9.00;;;6.63;;
1344;SDS011;15375;48.540;9.268;2023-05-29T02:40:40;6.23;;;5.27;;
1344;SDS011;15375;48.540;9.268;2023-05-29T02:43:05;8.87;;;5.87;;
1344;SDS011;15375;48.540;9.268;2023-05-29T02:45:33;8.43;;;4.97;;
1344;SDS011;15375;48.540;9.268;2023-05-29T02:47:58;6.03;;;5.43;;
1344;SDS011;15375;48.540;9.268;2023-05-29T02:50:24;11.93;;;5.87;;
1344;SDS011;15375;48.540;9.268;2023-05-29T02:52:49;8.87;;;6.43;;
1344;SDS011;15375;48.540;9.268;2023-05-29T02:55:15;7.47;;;5.33;;
1344;SDS011;15375;48.540;9.268;2023-05-29T02:57:40;10.40;;;6.10;;
1344;SDS011;15375;48.540;9.268;2023-05-29T03:00:07;10.00;;;5.50;;
1344;SDS011;15375;48.540;9.268;2023-05-29T03:02:33;9.13;;;6.17;;
1344;SDS011;15375;48.540;9.268;2023-05-29T03:04:59;8.13;;;6.17;;
1344;SDS011;15375;48.540;9.268;2023-05-29T03:07:25;7.77;;;5.70;;
1344;SDS011;15375;48.540;9.268;2023-05-29T03:09:50;7.77;;;6.07;;
1344;SDS011;15375;48.540;9.268;2023-05-29T03:12:17;9.07;;;6.03;;
1344;SDS011;15375;48.540;9.268;2023-05-29T03:14:43;6.30;;;5.10;;
1344;SDS011;15375;48.540;9.268;2023-05-29T03:17:09;7.20;;;5.20;;
1344;SDS011;15375;48.540;9.268;2023-05-29T03:19:34;9.60;;;5.00;;
1344;SDS011;15375;48.540;9.268;2023-05-29T03:22:00;7.17;;;5.93;;
1344;SDS011;15375;48.540;9.268;2023-05-29T03:24:25;5.87;;;5.03;;
1344;SDS011;15375;48.540;9.268;2023-05-29T03:26:50;9.30;;;5.20;;
1344;SDS011;15375;48.540;9.268;2023-05-29T03:29:16;6.67;;;5.10;;
1344;SDS011;15375;48.540;9.268;2023-05-29T03:31:42;7.60;;;5.30;;
1344;SDS011;15375;48.540;9.268;2023-05-29T03:34:07;6.50;;;4.90;;
1344;SDS011;15375;48.540;9.268;2023-05-29T03:36:33;5.90;;;5.30;;
1344;SDS011;15375;48.540;9.268;2023-05-29T03:39:01;6.17;;;5.40;;
1344;SDS011;15375;48.540;9.268;2023-05-29T03:41:27;5.60;;;5.00;;
1344;SDS011;15375;48.540;9.268;2023-05-29T03:43:52;7.40;;;5.13;;
1344;SDS011;15375;48.540;9.268;2023-05-29T03:46:17;8.33;;;5.40;;
1344;SDS011;15375;48.540;9.268;2023-05-29T03:48:43;9.33;;;5.17;;
1344;SDS011;15375;48.540;9.268;2023-05-29T03:51:08;7.73;;;5.57;;
1344;SDS011;15375;48.540;9.268;2023-05-29T03:53:33;7.87;;;5.30;;
1344;SDS011;15375;48.540;9.268;2023-05-29T03:55:59;8.13;;;5.50;;
1344;SDS011;15375;48.540;9.268;2023-05-29T03:58:25;8.13;;;5.57;;
1344;SDS011;15375;48.540;9.268;2023-05-29T04:00:50;8.43;;;5.87;;
1344;SDS011;15375;48.540;9.268;2023-05-29T04:03:15;7.57;;;5.60;;
1344;SDS011;15375;48.540;9.268;2023-05-29T04:05:41;6.90;;;5.80;;
1344;SDS011;15375;48.540;9.268;2023-05-29T04:08:06;6.00;;;5.07;;
1344;SDS011;15375;48.540;9.268;2023-05-29T04:10:33;8.10;;;5.33;;
1344;SDS011;15375;48.540;9.268;2023-05-29T04:12:59;8.93;;;5.00;;
1344;SDS011;15375;48.540;9.268;2023-05-29T04:15:26;7.27;;;4.67;;
1344;SDS011;15375;48.540;9.268;2023-05-29T04:17:55;6.80;;;4.90;;
1344;SDS011;15375;48.540;9.268;2023-05-29T04:20:21;8.37;;;5.10;;
1344;SDS011;15375;48.540;9.268;2023-05-29T04:22:46;6.90;;;5.30;;
1344;SDS011;15375;48.540;9.268;2023-05-29T04:25:12;6.53;;;5.60;;
1344;SDS011;15375;48.540;9.268;2023-05-29T04:27:37;6.97;;;5.23;;
1344;SDS011;15375;48.540;9.268;2023-05-29T04:30:06;8.13;;;5.27;;
1344;SDS011;15375;48.540;9.268;2023-05-29T04:32:32;6.17;;;5.17;;
1344;SDS011;15375;48.540;9.268;2023-05-29T04:34:59;6.40;;;4.77;;
1344;SDS011;15375;48.540;9.268;2023-05-29T04:37:28;5.80;;;5.27;;
1344;SDS011;15375;48.540;9.268;2023-05-29T04:39:55;6.90;;;5.47;;
1344;SDS011;15375;48.540;9.268;2023-05-29T04:42:21;6.37;;;5.77;;
1344;SDS011;15375;48.540;9.268;2023-05-29T04:44:47;10.13;;;5.47;;
1344;SDS011;15375;48.540;9.268;2023-05-29T04:47:14;6.63;;;5.10;;
1344;SDS011;15375;48.540;9.268;2023-05-29T04:49:40;8.27;;;5.87;;
1344;SDS011;15375;48.540;9.268;2023-05-29T04:52:06;8.00;;;5.90;;
1344;SDS011;15375;48.540;9.268;2023-05-29T04:54:32;8.30;;;5.50;;
1344;SDS011;15375;48.540;9.268;2023-05-29T04:56:59;8.10;;;4.90;;
1344;SDS011;15375;48.540;9.268;2023-05-29T04:59:25;6.37;;;5.20;;
1344;SDS011;15375;48.540;9.268;2023-05-29T05:01:51;10.43;;;5.63;;
1344;SDS011;15375;48.540;9.268;2023-05-29T05:04:16;9.97;;;6.17;;
1344;SDS011;15375;48.540;9.268;2023-05-29T05:06:42;7.17;;;5.40;;
1344;SDS011;15375;48.540;9.268;2023-05-29T05:09:08;9.47;;;5.50;;
1344;SDS011;15375;48.540;9.268;2023-05-29T05:11:35;10.13;;;6.17;;
1344;SDS011;15375;48.540;9.268;2023-05-29T05:14:00;12.00;;;5.87;;
1344;SDS011;15375;48.540;9.268;2023-05-29T05:16:26;9.33;;;5.53;;
1344;SDS011;15375;48.540;9.268;2023-05-29T05:18:51;9.53;;;6.27;;
1344;SDS011;15375;48.540;9.268;2023-05-29T05:21:16;7.93;;;6.57;;
1344;SDS011;15375;48.540;9.268;2023-05-29T05:23:41;10.70;;;6.57;;
1344;SDS011;15375;48.540;9.268;2023-05-29T05:26:07;11.70;;;6.73;;
1344;SDS011;15375;48.540;9.268;2023-05-29T05:28:32;9.03;;;6.47;;
1344;SDS011;15375;48.540;9.268;2023-05-29T05:30:58;9.30;;;7.00;;
1344;SDS011;15375;48.540;9.268;2023-05-29T05:33:24;12.33;;;6.97;;
1344;SDS011;15375;48.540;9.268;2023-05-29T05:35:49;10.70;;;8.17;;
1344;SDS011;15375;48.540;9.268;2023-05-29T05:38:15;8.57;;;7.03;;
1344;SDS011;15375;48.540;9.268;2023-05-29T05:40:41;11.03;;;7.77;;
1344;SDS011;15375;48.540;9.268;2023-05-29T05:43:06;7.60;;;6.90;;
1344;SDS011;15375;48.540;9.268;2023-05-29T05:45:32;9.50;;;7.37;;
1344;SDS011;15375;48.540;9.268;2023-05-29T05:47:57;7.50;;;6.80;;
1344;SDS011;15375;48.540;9.268;2023-05-29T05:50:22;8.63;;;7.67;;
1344;SDS011;15375;48.540;9.268;2023-05-29T05:52:49;8.10;;;7.27;;
1344;SDS011;15375;48.540;9.268;2023-05-29T05:55:15;8.67;;;7.60;;
1344;SDS011;15375;48.540;9.268;2023-05-29T05:57:40;10.60;;;7.53;;
1344;SDS011;15375;48.540;9.268;2023-05-29T06:00:06;7.57;;;6.87;;
1344;SDS011;15375;48.540;9.268;2023-05-29T06:02:38;8.10;;;7.30;;
1344;SDS011;15375;48.540;9.268;2023-05-29T06:05:06;8.73;;;7.67;;
1344;SDS011;15375;48.540;9.268;2023-05-29T06:07:32;9.40;;;8.47;;
1344;SDS011;15375;48.540;9.268;2023-05-29T06:09:57;8.27;;;7.37;;
1344;SDS011;15375;48.540;9.268;2023-05-29T06:12:23;10.13;;;8.00;;
1344;SDS011;15375;48.540;9.268;2023-05-29T06:14:49;9.60;;;7.53;;
1344;SDS011;15375;48.540;9.268;2023-05-29T06:17:17;8.87;;;8.07;;
1344;SDS011;15375;48.540;9.268;2023-05-29T06:20:02;8.30;;;7.60;;
1344;SDS011;15375;48.540;9.268;2023-05-29T06:22:30;9.07;;;8.20;;
1344;SDS011;15375;48.540;9.268;2023-05-29T06:25:01;9.53;;;8.63;;
1344;SDS011;15375;48.540;9.268;2023-05-29T06:27:35;9.60;;;8.70;;
1344;SDS011;15375;48.540;9.268;2023-05-29T06:30:00;10.40;;;8.27;;
1344;SDS011;15375;48.540;9.268;2023-05-29T06:32:29;8.77;;;7.97;;
1344;SDS011;15375;48.540;9.268;2023-05-29T06:34:54;9.03;;;8.13;;
1344;SDS011;15375;48.540;9.268;2023-05-29T06:37:20;7.90;;;7.10;;
1344;SDS011;15375;48.540;9.268;2023-05-29T06:39:48;9.47;;;6.70;;
1344;SDS011;15375;48.540;9.268;2023-05-29T06:42:16;8.40;;;7.57;;
1344;SDS011;15375;48.540;9.268;2023-05-29T06:44:44;8.67;;;7.83;;
1344;SDS011;15375;48.540;9.268;2023-05-29T06:47:12;9.10;;;8.20;;
1344;SDS011;15375;48.540;9.268;2023-05-29T06:49:38;13.33;;;8.33;;
1344;SDS011;15375;48.540;9.268;2023-05-29T06:52:03;9.90;;;8.47;;
1344;SDS011;15375;48.540;9.268;2023-05-29T06:54:28;7.90;;;7.20;;
1344;SDS011;15375;48.540;9.268;2023-05-29T06:56:54;9.20;;;8.30;;
1344;SDS011;15375;48.540;9.268;2023-05-29T06:59:20;9.63;;;8.03;;
1344;SDS011;15375;48.540;9.268;2023-05-29T07:01:45;9.30;;;7.30;;
1344;SDS011;15375;48.540;9.268;2023-05-29T07:04:11;8.70;;;7.43;;
1344;SDS011;15375;48.540;9.268;2023-05-29T07:06:39;8.40;;;7.10;;
1344;SDS011;15375;48.540;9.268;2023-05-29T07:09:04;8.87;;;7.70;;
1344;SDS011;15375;48.540;9.268;2023-05-29T07:11:30;7.53;;;6.83;;
1344;SDS011;15375;48.540;9.268;2023-05-29T07:13:55;8.03;;;7.20;;
1344;SDS011;15375;48.540;9.268;2023-05-29T07:16:21;7.73;;;6.70;;
1344;SDS011;15375;48.540;9.268;2023-05-29T07:18:46;9.90;;;7.03;;
1344;SDS011;15375;48.540;9.268;2023-05-29T07:21:11;6.63;;;6.03;;
1344;SDS011;15375;48.540;9.268;2023-05-29T07:23:37;7.80;;;7.00;;
1344;SDS011;15375;48.540;9.268;2023-05-29T07:26:02;9.30;;;6.70;;
1344;SDS011;15375;48.540;9.268;2023-05-29T07:28:27;6.97;;;6.30;;
1344;SDS011;15375;48.540;9.268;2023-05-29T07:30:53;6.80;;;6.10;;
1344;SDS011;15375;48.540;9.268;2023-05-29T07:33:18;6.70;;;5.43;;
1344;SDS011;15375;48.540;9.268;2023-05-29T07:35:44;8.07;;;6.93;;
1344;SDS011;15375;48.540;9.268;2023-05-29T07:38:09;6.83;;;5.53;;
1344;SDS011;15375;48.540;9.268;2023-05-29T07:40:34;7.63;;;6.80;;
1344;SDS011;15375;48.540;9.268;2023-05-29T07:43:00;7.50;;;6.40;;
1344;SDS011;15375;48.540;9.268;2023-05-29T07:45:25;8.20;;;6.13;;
1344;SDS011;15375;48.540;9.268;2023-05-29T07:47:51;7.23;;;6.40;;
1344;SDS011;15375;48.540;9.268;2023-05-29T07:50:17;6.10;;;5.60;;
1344;SDS011;15375;48.540;9.268;2023-05-29T07:52:42;7.40;;;6.13;;
1344;SDS011;15375;48.540;9.268;2023-05-29T07:55:08;9.10;;;7.00;;
1344;SDS011;15375;48.540;9.268;2023-05-29T07:57:34;8.17;;;6.60;;
1344;SDS011;15375;48.540;9.268;2023-05-29T08:00:00;14.63;;;6.53;;
1344;SDS011;15375;48.540;9.268;2023-05-29T08:02:27;6.63;;;5.97;;
1344;SDS011;15375;48.540;9.268;2023-05-29T08:04:53;8.43;;;6.30;;
1344;SDS011;15375;48.540;9.268;2023-05-29T08:07:18;8.10;;;6.20;;
1344;SDS011;15375;48.540;9.268;2023-05-29T08:09:43;7.40;;;6.50;;
1344;SDS011;15375;48.540;9.268;2023-05-29T08:12:08;6.60;;;5.83;;
1344;SDS011;15375;48.540;9.268;2023-05-29T08:14:34;6.60;;;5.93;;
1344;SDS011;15375;48.540;9.268;2023-05-29T08:17:00;9.87;;;6.80;;
1344;SDS011;15375;48.540;9.268;2023-05-29T08:19:25;8.70;;;5.83;;
1344;SDS011;15375;48.540;9.268;2023-05-29T08:21:50;7.87;;;7.07;;
1344;SDS011;15375;48.540;9.268;2023-05-29T08:24:16;6.47;;;5.83;;
1344;SDS011;15375;48.540;9.268;2023-05-29T08:26:41;7.33;;;6.53;;
1344;SDS011;15375;48.540;9.268;2023-05-29T08:29:08;7.30;;;6.20;;
1344;SDS011;15375;48.540;9.268;2023-05-29T08:31:34;10.80;;;6.03;;
1344;SDS011;15375;48.540;9.268;2023-05-29T08:33:59;7.20;;;6.50;;
1344;SDS011;15375;48.540;9.268;2023-05-29T08:36:24;8.53;;;6.17;;
1344;SDS011;15375;48.540;9.268;2023-05-29T08:38:50;7.00;;;6.30;;
1344;SDS011;15375;48.540;9.268;2023-05-29T08:44:15;7.37;;;6.30;;
1344;SDS011;15375;48.540;9.268;2023-05-29T08:46:46;9.23;;;5.97;;
1344;SDS011;15375;48.540;9.268;2023-05-29T08:49:16;8.67;;;7.30;;
1344;SDS011;15375;48.540;9.268;2023-05-29T08:51:45;9.03;;;6.30;;
1344;SDS011;15375;48.540;9.268;2023-05-29T08:54:12;6.77;;;6.17;;
1344;SDS011;15375;48.540;9.268;2023-05-29T08:56:39;8.77;;;6.63;;
1344;SDS011;15375;48.540;9.268;2023-05-29T08:59:05;7.93;;;6.27;;
1344;SDS011;15375;48.540;9.268;2023-05-29T09:01:33;6.70;;;6.10;;
1344;SDS011;15375;48.540;9.268;2023-05-29T09:03:59;6.57;;;5.70;;
1344;SDS011;15375;48.540;9.268;2023-05-29T09:06:26;7.03;;;6.33;;
1344;SDS011;15375;48.540;9.268;2023-05-29T09:08:51;6.27;;;5.67;;
1344;SDS011;15375;48.540;9.268;2023-05-29T09:11:18;11.33;;;5.87;;
1344;SDS011;15375;48.540;9.268;2023-05-29T09:13:43;7.33;;;6.43;;
1344;SDS011;15375;48.540;9.268;2023-05-29T09:16:09;6.57;;;5.97;;
1344;SDS011;15375;48.540;9.268;2023-05-29T09:18:34;8.80;;;6.40;;
1344;SDS011;15375;48.540;9.268;2023-05-29T09:21:00;7.93;;;5.97;;
1344;SDS011;15375;48.540;9.268;2023-05-29T09:23:33;6.77;;;6.07;;
1344;SDS011;15375;48.540;9.268;2023-05-29T09:26:01;6.73;;;5.87;;
1344;SDS011;15375;48.540;9.268;2023-05-29T09:28:27;6.33;;;5.73;;
1344;SDS011;15375;48.540;9.268;2023-05-29T09:30:56;6.23;;;5.30;;
1344;SDS011;15375;48.540;9.268;2023-05-29T09:33:22;7.70;;;6.27;;
1344;SDS011;15375;48.540;9.268;2023-05-29T09:35:48;10.30;;;5.60;;
1344;SDS011;15375;48.540;9.268;2023-05-29T09:38:15;6.97;;;6.33;;
1344;SDS011;15375;48.540;9.268;2023-05-29T09:40:43;8.30;;;6.03;;
1344;SDS011;15375;48.540;9.268;2023-05-29T09:45:37;6.67;;;5.97;;
1344;SDS011;15375;48.540;9.268;2023-05-29T09:48:05;7.60;;;6.63;;
1344;SDS011;15375;48.540;9.268;2023-05-29T09:50:32;8.33;;;5.73;;
1344;SDS011;15375;48.540;9.268;2023-05-29T09:52:58;5.87;;;5.27;;
1344;SDS011;15375;48.540;9.268;2023-05-29T09:55:26;7.93;;;5.73;;
1344;SDS011;15375;48.540;9.268;2023-05-29T09:57:53;6.67;;;5.27;;
1344;SDS011;15375;48.540;9.268;2023-05-29T10:00:20;5.90;;;5.20;;
1344;SDS011;15375;48.540;9.268;2023-05-29T10:02:49;7.60;;;5.80;;
1344;SDS011;15375;48.540;9.268;2023-05-29T10:05:15;7.43;;;5.53;;
1344;SDS011;15375;48.540;9.268;2023-05-29T10:07:43;6.80;;;5.30;;
1344;SDS011;15375;48.540;9.268;2023-05-29T10:10:12;6.13;;;4.80;;
1344;SDS011;15375;48.540;9.268;2023-05-29T10:12:39;6.17;;;5.57;;
1344;SDS011;15375;48.540;9.268;2023-05-29T10:15:13;6.03;;;5.43;;
1344;SDS011;15375;48.540;9.268;2023-05-29T10:17:41;6.20;;;5.60;;
1344;SDS011;15375;48.540;9.268;2023-05-29T10:20:14;5.77;;;5.17;;
1344;SDS011;15375;48.540;9.268;2023-05-29T10:22:45;6.63;;;5.87;;
1344;SDS011;15375;48.540;9.268;2023-05-29T10:25:13;6.20;;;5.40;;
1344;SDS011;15375;48.540;9.268;2023-05-29T10:27:42;6.80;;;6.00;;
1344;SDS011;15375;48.540;9.268;2023-05-29T10:36:08;6.80;;;5.47;;
1344;SDS011;15375;48.540;9.268;2023-05-29T10:38:44;6.00;;;5.10;;
1344;SDS011;15375;48.540;9.268;2023-05-29T10:43:54;6.37;;;5.47;;
1344;SDS011;15375;48.540;9.268;2023-05-29T10:49:15;5.53;;;4.53;;
1344;SDS011;15375;48.540;9.268;2023-05-29T10:51:41;5.40;;;4.33;;
1344;SDS011;15375;48.540;9.268;2023-05-29T10:54:07;4.90;;;4.33;;
1344;SDS011;15375;48.540;9.268;2023-05-29T10:56:32;8.73;;;5.40;;
1344;SDS011;15375;48.540;9.268;2023-05-29T10:58:58;10.73;;;5.47;;
1344;SDS011;15375;48.540;9.268;2023-05-29T11:01:27;6.57;;;4.50;;
1344;SDS011;15375;48.540;9.268;2023-05-29T11:03:54;5.20;;;4.70;;
1344;SDS011;15375;48.540;9.268;2023-05-29T11:06:49;6.73;;;4.43;;
1344;SDS011;15375;48.540;9.268;2023-05-29T11:09:32;8.83;;;5.27;;
1344;SDS011;15375;48.540;9.268;2023-05-29T11:12:12;6.20;;;5.20;;
1344;SDS011;15375;48.540;9.268;2023-05-29T11:15:06;5.70;;;4.27;;
1344;SDS011;15375;48.540;9.268;2023-05-29T11:20:20;4.60;;;4.10;;
1344;SDS011;15375;48.540;9.268;2023-05-29T11:25:23;8.93;;;4.37;;
1344;SDS011;15375;48.540;9.268;2023-05-29T11:27:48;5.80;;;5.23;;
1344;SDS011;15375;48.540;9.268;2023-05-29T11:30:16;7.30;;;4.50;;
1344;SDS011;15375;48.540;9.268;2023-05-29T11:32:43;5.50;;;4.67;;
1344;SDS011;15375;48.540;9.268;2023-05-29T11:35:10;5.17;;;4.67;;
1344;SDS011;15375;48.540;9.268;2023-05-29T11:37:38;4.97;;;4.47;;
1344;SDS011;15375;48.540;9.268;2023-05-29T11:40:05;5.27;;;4.77;;
1344;SDS011;15375;48.540;9.268;2023-05-29T11:42:34;7.00;;;5.00;;
1344;SDS011;15375;48.540;9.268;2023-05-29T11:45:14;4.83;;;4.33;;
1344;SDS011;15375;48.540;9.268;2023-05-29T11:47:53;5.20;;;4.70;;
1344;SDS011;15375;48.540;9.268;2023-05-29T11:50:20;5.20;;;4.70;;
1344;SDS011;15375;48.540;9.268;2023-05-29T11:52:47;7.83;;;4.90;;
1344;SDS011;15375;48.540;9.268;2023-05-29T11:55:12;4.80;;;4.40;;
1344;SDS011;15375;48.540;9.268;2023-05-29T11:57:37;5.70;;;4.20;;
1344;SDS011;15375;48.540;9.268;2023-05-29T12:00:04;4.50;;;4.10;;
1344;SDS011;15375;48.540;9.268;2023-05-29T12:02:36;5.27;;;3.90;;
1344;SDS011;15375;48.540;9.268;2023-05-29T12:05:02;5.80;;;4.23;;
1344;SDS011;15375;48.540;9.268;2023-05-29T12:07:34;4.40;;;4.00;;
1344;SDS011;15375;48.540;9.268;2023-05-29T12:10:08;4.73;;;4.13;;
1344;SDS011;15375;48.540;9.268;2023-05-29T12:12:35;4.83;;;4.03;;
1344;SDS011;15375;48.540;9.268;2023-05-29T12:15:00;7.17;;;4.20;;
1344;SDS011;15375;48.540;9.268;2023-05-29T12:17:30;4.77;;;4.27;;
1344;SDS011;15375;48.540;9.268;2023-05-29T12:19:56;5.20;;;4.07;;
1344;SDS011;15375;48.540;9.268;2023-05-29T12:22:33;5.93;;;4.40;;
1344;SDS011;15375;48.540;9.268;2023-05-29T12:25:18;5.80;;;4.93;;
1344;SDS011;15375;48.540;9.268;2023-05-29T12:27:46;5.60;;;4.07;;
1344;SDS011;15375;48.540;9.268;2023-05-29T12:30:13;6.00;;;3.90;;
1344;SDS011;15375;48.540;9.268;2023-05-29T12:32:44;4.97;;;4.47;;
1344;SDS011;15375;48.540;9.268;2023-05-29T12:35:12;6.27;;;4.10;;
1344;SDS011;15375;48.540;9.268;2023-05-29T12:38:00;4.63;;;4.23;;
1344;SDS011;15375;48.540;9.268;2023-05-29T12:40:30;4.40;;;3.50;;
1344;SDS011;15375;48.540;9.268;2023-05-29T12:43:02;6.67;;;4.43;;
1344;SDS011;15375;48.540;9.268;2023-05-29T12:45:31;5.80;;;4.63;;
1344;SDS011;15375;48.540;9.268;2023-05-29T12:47:58;6.53;;;4.47;;
1344;SDS011;15375;48.540;9.268;2023-05-29T12:50:29;4.20;;;3.90;;
1344;SDS011;15375;48.540;9.268;2023-05-29T12:53:01;5.03;;;3.93;;
1344;SDS011;15375;48.540;9.268;2023-05-29T12:55:28;4.97;;;3.87;;
1344;SDS011;15375;48.540;9.268;2023-05-29T12:57:55;5.60;;;4.27;;
1344;SDS011;15375;48.540;9.268;2023-05-29T13:00:21;5.43;;;4.90;;
1344;SDS011;15375;48.540;9.268;2023-05-29T13:02:48;5.37;;;4.50;;
1344;SDS011;15375;48.540;9.268;2023-05-29T13:05:14;5.20;;;4.80;;
1344;SDS011;15375;48.540;9.268;2023-05-29T13:07:41;5.80;;;5.00;;
1344;SDS011;15375;48.540;9.268;2023-05-29T13:10:07;4.00;;;3.60;;
1344;SDS011;15375;48.540;9.268;2023-05-29T13:12:34;4.53;;;4.10;;
1344;SDS011;15375;48.540;9.268;2023-05-29T13:14:59;5.20;;;4.70;;
1344;SDS011;15375;48.540;9.268;2023-05-29T13:17:25;4.37;;;3.97;;
1344;SDS011;15375;48.540;9.268;2023-05-29T13:19:50;5.67;;;4.50;;
1344;SDS011;15375;48.540;9.268;2023-05-29T13:22:15;6.80;;;4.87;;
1344;SDS011;15375;48.540;9.268;2023-05-29T13:24:41;5.43;;;3.90;;
1344;SDS011;15375;48.540;9.268;2023-05-29T13:27:07;6.07;;;4.87;;
1344;SDS011;15375;48.540;9.268;2023-05-29T13:29:32;7.90;;;5.07;;
1344;SDS011;15375;48.540;9.268;2023-05-29T13:31:57;5.20;;;4.23;;
1344;SDS011;15375;48.540;9.268;2023-05-29T13:34:23;5.70;;;4.33;;
1344;SDS011;15375;48.540;9.268;2023-05-29T13:36:53;5.07;;;4.00;;
1344;SDS011;15375;48.540;9.268;2023-05-29T13:39:21;7.47;;;4.93;;
1344;SDS011;15375;48.540;9.268;2023-05-29T13:41:47;4.20;;;3.70;;
1344;SDS011;15375;48.540;9.268;2023-05-29T13:44:12;4.37;;;3.97;;
1344;SDS011;15375;48.540;9.268;2023-05-29T13:46:38;6.07;;;4.37;;
1344;SDS011;15375;48.540;9.268;2023-05-29T13:49:03;3.47;;;3.20;;
1344;SDS011;15375;48.540;9.268;2023-05-29T13:51:28;4.97;;;4.57;;
1344;SDS011;15375;48.540;9.268;2023-05-29T13:53:54;10.00;;;5.17;;
1344;SDS011;15375;48.540;9.268;2023-05-29T13:56:19;6.03;;;4.33;;
1344;SDS011;15375;48.540;9.268;2023-05-29T13:58:45;5.80;;;5.00;;
1344;SDS011;15375;48.540;9.268;2023-05-29T14:01:10;6.20;;;4.70;;
1344;SDS011;15375;48.540;9.268;2023-05-29T14:03:35;5.70;;;4.67;;
1344;SDS011;15375;48.540;9.268;2023-05-29T14:06:01;4.30;;;3.83;;
1344;SDS011;15375;48.540;9.268;2023-05-29T14:08:30;5.90;;;4.87;;
1344;SDS011;15375;48.540;9.268;2023-05-29T14:10:55;5.93;;;4.50;;
1344;SDS011;15375;48.540;9.268;2023-05-29T14:13:20;5.23;;;4.70;;
1344;SDS011;15375;48.540;9.268;2023-05-29T14:15:46;4.37;;;3.97;;
1344;SDS011;15375;48.540;9.268;2023-05-29T14:18:13;6.30;;;5.30;;
1344;SDS011;15375;48.540;9.268;2023-05-29T14:20:39;6.07;;;4.50;;
1344;SDS011;15375;48.540;9.268;2023-05-29T14:23:04;6.33;;;4.83;;
1344;SDS011;15375;48.540;9.268;2023-05-29T14:25:30;5.00;;;4.33;;
1344;SDS011;15375;48.540;9.268;2023-05-29T14:27:55;4.83;;;4.23;;
1344;SDS011;15375;48.540;9.268;2023-05-29T14:30:21;4.33;;;3.93;;
1344;SDS011;15375;48.540;9.268;2023-05-29T14:32:46;5.47;;;4.03;;
1344;SDS011;15375;48.540;9.268;2023-05-29T14:35:12;5.17;;;4.67;;
1344;SDS011;15375;48.540;9.268;2023-05-29T14:37:37;7.07;;;4.70;;
1344;SDS011;15375;48.540;9.268;2023-05-29T14:40:03;7.77;;;4.30;;
1344;SDS011;15375;48.540;9.268;2023-05-29T14:42:28;7.50;;;4.30;;
1344;SDS011;15375;48.540;9.268;2023-05-29T14:44:54;6.47;;;5.60;;
1344;SDS011;15375;48.540;9.268;2023-05-29T14:47:19;5.03;;;4.13;;
1344;SDS011;15375;48.540;9.268;2023-05-29T14:49:44;5.57;;;4.30;;
1344;SDS011;15375;48.540;9.268;2023-05-29T14:52:10;5.77;;;4.53;;
1344;SDS011;15375;48.540;9.268;2023-05-29T14:54:35;4.93;;;4.03;;
1344;SDS011;15375;48.540;9.268;2023-05-29T14:57:00;5.07;;;4.27;;
1344;SDS011;15375;48.540;9.268;2023-05-29T14:59:26;4.73;;;3.90;;
1344;SDS011;15375;48.540;9.268;2023-05-29T15:01:51;5.73;;;4.67;;
1344;SDS011;15375;48.540;9.268;2023-05-29T15:04:18;7.77;;;4.70;;
1344;SDS011;15375;48.540;9.268;2023-05-29T15:06:44;5.00;;;4.50;;
1344;SDS011;15375;48.540;9.268;2023-05-29T15:09:10;4.90;;;4.50;;
1344;SDS011;15375;48.540;9.268;2023-05-29T15:11:35;6.70;;;5.57;;
1344;SDS011;15375;48.540;9.268;2023-05-29T15:14:01;5.80;;;4.30;;
1344;SDS011;15375;48.540;9.268;2023-05-29T15:16:26;6.30;;;4.80;;
1344;SDS011;15375;48.540;9.268;2023-05-29T15:18:52;4.97;;;4.57;;
1344;SDS011;15375;48.540;9.268;2023-05-29T15:21:17;4.23;;;3.83;;
1344;SDS011;15375;48.540;9.268;2023-05-29T15:23:42;7.57;;;4.90;;
1344;SDS011;15375;48.540;9.268;2023-05-29T15:26:08;6.47;;;4.57;;